Aviation Digital Data Service (ADDS)

Output produced by METARs form (0800 UTC 11 December 2016)
found at http://aviationweather.gov/adds/metars/
 
KAOO 110619Z 1106/1206 21005KT P6SM OVC100 
     FM110900 19005KT P6SM OVC050 
     FM111200 17005KT 3SM -SN OVC025 
     FM112000 17008KT P6SM OVC050 
     FM120300 18007KT 3SM -FZRAPLSN OVC025